VIPER6 KSAN-KONT
Flight info
| Callsign | VIPER6 |
|---|---|
| Flight time | 0h 19m |
| Altitude | VFR |
| Route | VFR N +FF |
| Aircraft | F35/M-VGD/C |
Departure
| Time | 2026-04-25 04:14 |
|---|---|
| Airport | San Diego International Airport (KSAN) |
Arrival
| Time | 2026-04-25 04:33 |
|---|---|
| Airport | Ontario International Airport (KONT) |
| Time | Latitude | Longitude | Altitude | Speed | Heading |
|---|---|---|---|---|---|
| 2026-04-25 04:12 | 32.73122 | -117.17667 | 22 ft | 0 kts | 184° |
| 2026-04-25 04:12 | 32.73093 | -117.17678 | 22 ft | 4 kts | 208° |
| 2026-04-25 04:13 | 32.73063 | -117.17712 | 22 ft | 6 kts | 242° |
| 2026-04-25 04:13 | 32.73063 | -117.17763 | 23 ft | 5 kts | 287° |
| 2026-04-25 04:13 | 32.73073 | -117.17803 | 22 ft | 5 kts | 289° |
| 2026-04-25 04:13 | 32.73098 | -117.17893 | 23 ft | 19 kts | 288° |
| 2026-04-25 04:14 | 32.73212 | -117.18369 | 23 ft | 109 kts | 286° |
| 2026-04-25 04:14 | 32.73484 | -117.19460 | 233 ft | 170 kts | 287° |
| 2026-04-25 04:14 | 32.74037 | -117.20834 | 877 ft | 202 kts | 301° |
| 2026-04-25 04:14 | 32.74756 | -117.22228 | 1887 ft | 208 kts | 301° |
| 2026-04-25 04:15 | 32.75527 | -117.23733 | 2007 ft | 211 kts | 301° |
| 2026-04-25 04:15 | 32.76514 | -117.24976 | 2147 ft | 209 kts | 326° |
| 2026-04-25 04:15 | 32.77885 | -117.25544 | 1930 ft | 207 kts | 358° |
| 2026-04-25 04:15 | 32.79322 | -117.25615 | 2317 ft | 214 kts | 358° |
| 2026-04-25 04:16 | 32.81105 | -117.25675 | 2584 ft | 281 kts | 358° |
| 2026-04-25 04:16 | 32.82986 | -117.25501 | 2271 ft | 278 kts | 19° |
| 2026-04-25 04:16 | 32.84568 | -117.24815 | 3090 ft | 244 kts | 21° |
| 2026-04-25 04:16 | 32.86132 | -117.24087 | 4262 ft | 266 kts | 21° |
| 2026-04-25 04:17 | 32.87857 | -117.23283 | 5561 ft | 271 kts | 21° |
| 2026-04-25 04:17 | 32.89561 | -117.22488 | 6418 ft | 282 kts | 21° |
| 2026-04-25 04:17 | 32.91368 | -117.21646 | 7084 ft | 276 kts | 21° |
| 2026-04-25 04:17 | 32.93080 | -117.20849 | 7805 ft | 281 kts | 21° |
| 2026-04-25 04:18 | 32.94910 | -117.19995 | 8563 ft | 284 kts | 21° |
| 2026-04-25 04:18 | 32.96704 | -117.19184 | 9274 ft | 288 kts | 14° |
| 2026-04-25 04:18 | 32.98698 | -117.18878 | 9479 ft | 292 kts | 1° |
| 2026-04-25 04:18 | 33.00626 | -117.18855 | 9487 ft | 290 kts | 0° |
| 2026-04-25 04:19 | 33.02637 | -117.18838 | 9496 ft | 288 kts | 0° |
| 2026-04-25 04:19 | 33.04653 | -117.18821 | 9500 ft | 288 kts | 0° |
| 2026-04-25 04:19 | 33.06673 | -117.18804 | 9500 ft | 288 kts | 0° |
| 2026-04-25 04:19 | 33.08675 | -117.18787 | 9500 ft | 288 kts | 0° |
| 2026-04-25 04:20 | 33.10679 | -117.18771 | 9500 ft | 288 kts | 0° |
| 2026-04-25 04:20 | 33.12703 | -117.18754 | 9500 ft | 288 kts | 0° |
| 2026-04-25 04:20 | 33.14642 | -117.18737 | 9499 ft | 288 kts | 359° |
| 2026-04-25 04:20 | 33.16676 | -117.19012 | 9515 ft | 289 kts | 352° |
| 2026-04-25 04:21 | 33.18619 | -117.19361 | 9500 ft | 288 kts | 351° |
| 2026-04-25 04:21 | 33.20454 | -117.19692 | 9499 ft | 288 kts | 351° |
| 2026-04-25 04:21 | 33.22438 | -117.20049 | 9498 ft | 288 kts | 351° |
| 2026-04-25 04:21 | 33.24370 | -117.20396 | 9500 ft | 288 kts | 351° |
| 2026-04-25 04:22 | 33.26378 | -117.20759 | 9500 ft | 288 kts | 351° |
| 2026-04-25 04:22 | 33.28356 | -117.21114 | 9500 ft | 288 kts | 351° |
| 2026-04-25 04:22 | 33.30367 | -117.21476 | 9500 ft | 288 kts | 351° |
| 2026-04-25 04:22 | 33.32346 | -117.21832 | 9500 ft | 288 kts | 351° |
| 2026-04-25 04:23 | 33.34354 | -117.22193 | 9500 ft | 288 kts | 351° |
| 2026-04-25 04:23 | 33.36313 | -117.22546 | 9500 ft | 288 kts | 351° |
| 2026-04-25 04:23 | 33.38192 | -117.23031 | 9476 ft | 286 kts | 332° |
| 2026-04-25 04:23 | 33.39604 | -117.24210 | 9553 ft | 289 kts | 314° |
| 2026-04-25 04:24 | 33.41047 | -117.25829 | 9510 ft | 290 kts | 321° |
| 2026-04-25 04:24 | 33.42661 | -117.27245 | 9503 ft | 288 kts | 327° |
| 2026-04-25 04:24 | 33.44382 | -117.28520 | 9501 ft | 288 kts | 330° |
| 2026-04-25 04:24 | 33.46167 | -117.29694 | 9500 ft | 288 kts | 333° |
| 2026-04-25 04:25 | 33.47955 | -117.30771 | 9500 ft | 288 kts | 334° |
| 2026-04-25 04:25 | 33.49676 | -117.31749 | 9500 ft | 288 kts | 335° |
| 2026-04-25 04:25 | 33.51467 | -117.32725 | 9500 ft | 288 kts | 336° |
| 2026-04-25 04:25 | 33.53312 | -117.33701 | 9500 ft | 288 kts | 336° |
| 2026-04-25 04:26 | 33.55142 | -117.34648 | 9500 ft | 288 kts | 337° |
| 2026-04-25 04:26 | 33.56923 | -117.35557 | 9500 ft | 288 kts | 337° |
| 2026-04-25 04:26 | 33.58757 | -117.36485 | 9500 ft | 288 kts | 337° |
| 2026-04-25 04:26 | 33.60639 | -117.37430 | 9500 ft | 288 kts | 338° |
| 2026-04-25 04:27 | 33.62443 | -117.38332 | 9500 ft | 288 kts | 338° |
| 2026-04-25 04:27 | 33.64236 | -117.39226 | 9500 ft | 288 kts | 338° |
| 2026-04-25 04:27 | 33.65983 | -117.40095 | 9532 ft | 285 kts | 338° |
| 2026-04-25 04:27 | 33.67791 | -117.40994 | 10762 ft | 292 kts | 338° |
| 2026-04-25 04:28 | 33.69648 | -117.41916 | 11386 ft | 307 kts | 338° |
| 2026-04-25 04:28 | 33.71350 | -117.42761 | 11454 ft | 302 kts | 338° |
| 2026-04-25 04:28 | 33.73864 | -117.44011 | 11397 ft | 297 kts | 338° |
| 2026-04-25 04:28 | 33.75766 | -117.44958 | 11400 ft | 297 kts | 338° |
| 2026-04-25 04:29 | 33.77654 | -117.45898 | 11401 ft | 298 kts | 338° |
| 2026-04-25 04:29 | 33.79492 | -117.46815 | 11400 ft | 298 kts | 338° |
| 2026-04-25 04:29 | 33.81460 | -117.47797 | 10967 ft | 305 kts | 338° |
| 2026-04-25 04:29 | 33.83347 | -117.48737 | 10552 ft | 293 kts | 338° |
| 2026-04-25 04:30 | 33.85099 | -117.49612 | 10520 ft | 285 kts | 338° |
| 2026-04-25 04:30 | 33.86890 | -117.50507 | 10290 ft | 299 kts | 338° |
| 2026-04-25 04:30 | 33.88731 | -117.51427 | 9857 ft | 291 kts | 338° |
| 2026-04-25 04:30 | 33.90533 | -117.52374 | 9378 ft | 290 kts | 336° |
| 2026-04-25 04:31 | 33.92382 | -117.53382 | 8601 ft | 289 kts | 336° |
| 2026-04-25 04:31 | 33.94155 | -117.54402 | 7367 ft | 309 kts | 332° |
| 2026-04-25 04:31 | 33.95999 | -117.55594 | 6152 ft | 324 kts | 332° |
| 2026-04-25 04:31 | 33.97868 | -117.56810 | 4919 ft | 307 kts | 332° |
| 2026-04-25 04:32 | 33.99465 | -117.58015 | 3480 ft | 292 kts | 333° |
| 2026-04-25 04:32 | 34.01102 | -117.59009 | 2610 ft | 252 kts | 6° |
| 2026-04-25 04:32 | 34.02191 | -117.58081 | 1948 ft | 196 kts | 70° |
| 2026-04-25 04:32 | 34.02963 | -117.56863 | 2101 ft | 190 kts | 28° |
| 2026-04-25 04:33 | 34.04268 | -117.56681 | 1691 ft | 205 kts | 341° |
| 2026-04-25 04:33 | 34.05252 | -117.57542 | 1136 ft | 190 kts | 303° |
| 2026-04-25 04:33 | 34.05530 | -117.58645 | 923 ft | 153 kts | 264° |
| 2026-04-25 04:33 | 34.05496 | -117.59293 | 921 ft | 31 kts | 270° |
| 2026-04-25 04:34 | 34.05497 | -117.59480 | 921 ft | 30 kts | 269° |
| 2026-04-25 04:34 | 34.05492 | -117.59764 | 921 ft | 39 kts | 269° |
| 2026-04-25 04:34 | 34.05489 | -117.60022 | 920 ft | 24 kts | 269° |
| 2026-04-25 04:34 | 34.05459 | -117.60188 | 920 ft | 21 kts | 226° |
| 2026-04-25 04:35 | 34.05388 | -117.60358 | 920 ft | 34 kts | 274° |